createdAt,value
2022-09-11T00:02:16.130Z,14.35
2022-09-11T00:05:21.168Z,14.93
2022-09-11T00:08:31.165Z,14.50
2022-09-11T00:11:36.921Z,14.25
2022-09-11T00:14:42.064Z,15.93
2022-09-11T00:17:47.324Z,15.75
2022-09-11T00:20:53.190Z,14.30
2022-09-11T00:24:00.850Z,14.45
2022-09-11T00:27:06.957Z,15.23
2022-09-11T00:30:12.808Z,14.52
2022-09-11T00:33:18.975Z,14.15
2022-09-11T00:36:24.745Z,15.23
2022-09-11T00:39:33.098Z,16.17
2022-09-11T00:42:38.097Z,16.17
2022-09-11T00:45:43.347Z,15.00
2022-09-11T00:48:50.351Z,16.38
2022-09-11T00:51:57.597Z,15.50
2022-09-11T00:55:08.369Z,15.55
2022-09-11T00:58:15.481Z,15.70
2022-09-11T01:01:20.720Z,18.38
2022-09-11T01:04:26.369Z,18.33
2022-09-11T01:07:32.356Z,18.33
2022-09-11T01:10:43.432Z,20.13
2022-09-11T01:13:52.483Z,19.80
2022-09-11T01:17:00.135Z,21.33
2022-09-11T01:20:13.089Z,20.50
2022-09-11T01:23:36.104Z,22.42
2022-09-11T01:26:47.894Z,22.70
2022-09-11T01:29:59.585Z,23.08
2022-09-11T01:33:17.443Z,25.10
2022-09-11T01:36:23.900Z,29.55
2022-09-11T01:39:32.776Z,28.10
2022-09-11T01:45:48.857Z,28.60
2022-09-11T01:48:56.679Z,31.23
2022-09-11T01:52:03.876Z,30.50
2022-09-11T01:55:13.732Z,31.83
2022-09-11T01:58:23.664Z,37.38
2022-09-11T02:01:33.184Z,34.17
2022-09-11T02:04:41.371Z,33.05
2022-09-11T02:07:49.622Z,32.65
2022-09-11T02:10:57.274Z,31.48
2022-09-11T02:14:04.716Z,32.10
2022-09-11T02:17:18.634Z,33.22
2022-09-11T02:20:23.885Z,31.65
2022-09-11T02:23:29.601Z,28.20
2022-09-11T02:26:36.937Z,28.38
2022-09-11T02:29:42.485Z,27.25
2022-09-11T02:32:50.833Z,28.27
2022-09-11T02:35:57.407Z,26.17
2022-09-11T02:39:08.997Z,31.48
2022-09-11T02:42:23.167Z,28.23
2022-09-11T02:45:33.633Z,29.45
2022-09-11T02:48:46.879Z,29.40
2022-09-11T02:51:56.767Z,27.40
2022-09-11T02:55:07.747Z,26.95
2022-09-11T02:58:16.425Z,26.20
2022-09-11T03:01:22.675Z,25.98
2022-09-11T03:04:32.484Z,23.92
2022-09-11T03:07:37.905Z,24.83
2022-09-11T03:10:43.312Z,23.17
2022-09-11T03:13:48.452Z,23.00
2022-09-11T03:16:57.085Z,21.95
2022-09-11T03:20:05.580Z,20.43
2022-09-11T03:23:10.973Z,21.80
2022-09-11T03:26:17.603Z,22.08
2022-09-11T03:29:26.133Z,22.02
2022-09-11T03:32:32.672Z,20.63
2022-09-11T03:35:40.581Z,21.77
2022-09-11T03:38:46.697Z,21.20
2022-09-11T03:41:54.501Z,20.15
2022-09-11T03:45:01.367Z,19.00
2022-09-11T03:48:09.143Z,20.40
2022-09-11T03:51:17.993Z,19.67
2022-09-11T03:54:23.078Z,19.30
2022-09-11T03:57:29.191Z,21.23
2022-09-11T04:00:34.320Z,20.58
2022-09-11T04:03:39.648Z,20.33
2022-09-11T04:06:49.303Z,19.60
2022-09-11T04:09:54.280Z,19.77
2022-09-11T04:12:59.591Z,19.60
2022-09-11T04:16:07.541Z,18.70
2022-09-11T04:19:15.151Z,18.05
2022-09-11T04:22:24.613Z,17.67
2022-09-11T04:25:29.893Z,18.83
2022-09-11T04:28:37.005Z,16.92
2022-09-11T04:31:43.124Z,16.88
2022-09-11T04:34:50.603Z,17.38
2022-09-11T04:37:58.406Z,16.05
2022-09-11T04:41:04.441Z,17.27
2022-09-11T04:44:09.686Z,15.82
2022-09-11T04:47:20.132Z,16.85
2022-09-11T04:50:25.802Z,18.17
2022-09-11T04:53:51.345Z,17.50
2022-09-11T04:56:58.151Z,17.27
2022-09-11T05:00:03.089Z,17.52
2022-09-11T05:03:09.207Z,17.23
2022-09-11T05:06:16.766Z,17.13
2022-09-11T05:09:25.935Z,17.23
2022-09-11T05:12:32.533Z,15.05
2022-09-11T05:15:37.808Z,14.95
2022-09-11T05:18:43.658Z,14.70
2022-09-11T05:21:49.663Z,13.93
2022-09-11T05:24:57.867Z,12.57
2022-09-11T05:28:03.718Z,11.45
2022-09-11T05:31:13.974Z,10.75
2022-09-11T05:34:21.441Z,11.48
2022-09-11T05:37:27.981Z,10.40
2022-09-11T05:40:35.849Z,12.88
2022-09-11T05:43:42.035Z,11.40
2022-09-11T05:46:48.716Z,12.30
2022-09-11T05:49:53.742Z,10.18
2022-09-11T05:52:59.204Z,13.38
2022-09-11T05:56:12.575Z,12.93
2022-09-11T05:59:18.669Z,11.73
2022-09-11T06:02:26.309Z,9.70
2022-09-11T06:05:33.752Z,8.07
2022-09-11T06:08:42.694Z,9.15
2022-09-11T06:11:50.887Z,9.25
2022-09-11T06:14:56.562Z,8.30
2022-09-11T06:18:02.412Z,7.63
2022-09-11T06:21:08.705Z,7.55
2022-09-11T06:24:20.625Z,7.60
2022-09-11T06:27:28.597Z,8.20
2022-09-11T06:30:33.915Z,6.90
2022-09-11T06:33:40.000Z,7.70
2022-09-11T06:36:48.724Z,7.38
2022-09-11T06:39:57.194Z,6.57
2022-09-11T06:43:07.857Z,6.88
2022-09-11T06:46:14.625Z,6.85
2022-09-11T06:49:20.203Z,6.93
2022-09-11T06:52:46.135Z,7.60
2022-09-11T06:56:08.101Z,6.72
2022-09-11T06:59:16.274Z,5.97
2022-09-11T07:02:21.625Z,4.82
2022-09-11T07:05:27.641Z,3.58
2022-09-11T07:08:33.679Z,3.42
2022-09-11T07:11:44.078Z,3.40
2022-09-11T07:14:51.990Z,3.22
2022-09-11T07:17:58.226Z,3.78
2022-09-11T07:21:03.184Z,4.05
2022-09-11T07:24:09.216Z,4.07
2022-09-11T07:27:18.347Z,3.60
2022-09-11T07:30:27.573Z,4.05
2022-09-11T07:33:34.041Z,3.35
2022-09-11T07:36:42.266Z,3.50
2022-09-11T07:39:48.286Z,4.25
2022-09-11T07:42:57.383Z,3.55
2022-09-11T07:46:05.370Z,4.55
2022-09-11T07:49:11.656Z,3.03
2022-09-11T07:52:21.005Z,3.05
2022-09-11T07:55:32.992Z,3.20
2022-09-11T07:58:39.069Z,2.75
2022-09-11T08:01:46.946Z,2.90
2022-09-11T08:04:55.381Z,3.20
2022-09-11T08:08:01.308Z,3.75
2022-09-11T08:11:08.082Z,3.67
2022-09-11T08:14:15.594Z,3.20
2022-09-11T08:17:23.601Z,3.47
2022-09-11T08:20:28.980Z,3.55
2022-09-11T08:23:35.074Z,3.67
2022-09-11T08:26:40.354Z,3.38
2022-09-11T08:29:49.079Z,3.38
2022-09-11T08:32:57.356Z,4.57
2022-09-11T08:36:03.238Z,4.10
2022-09-11T08:39:09.301Z,3.60
2022-09-11T08:42:20.393Z,4.13
2022-09-11T08:45:29.159Z,4.00
2022-09-11T08:48:43.753Z,4.40
2022-09-11T08:51:50.297Z,4.25
2022-09-11T08:54:58.650Z,3.55
2022-09-11T08:58:09.186Z,3.88
2022-09-11T09:01:27.068Z,5.13
2022-09-11T09:04:53.419Z,4.28
2022-09-11T09:08:04.978Z,4.95
2022-09-11T09:11:15.792Z,4.65
2022-09-11T09:14:35.805Z,5.35
2022-09-11T09:17:43.808Z,4.60
2022-09-11T09:21:00.738Z,4.90
2022-09-11T09:24:08.081Z,3.75
2022-09-11T09:27:18.287Z,3.75
2022-09-11T09:30:24.907Z,4.00
2022-09-11T09:33:32.726Z,3.90
2022-09-11T09:39:48.104Z,3.65
2022-09-11T09:43:01.351Z,4.05
2022-09-11T09:46:17.206Z,3.28
2022-09-11T09:49:25.205Z,2.97
2022-09-11T09:52:36.441Z,3.40
2022-09-11T09:55:44.531Z,2.78
2022-09-11T09:58:55.449Z,3.30
2022-09-11T10:02:00.663Z,3.38
2022-09-11T10:05:09.745Z,4.13
2022-09-11T10:08:27.920Z,3.22
2022-09-11T10:11:36.039Z,4.10
2022-09-11T10:14:51.470Z,3.33
2022-09-11T10:17:59.951Z,3.28
2022-09-11T10:21:17.154Z,3.13
2022-09-11T10:24:26.633Z,3.10
2022-09-11T10:27:35.649Z,3.00
2022-09-11T10:30:42.407Z,2.70
2022-09-11T10:33:50.656Z,2.67
2022-09-11T10:40:05.928Z,2.40
2022-09-11T10:43:25.289Z,2.75
2022-09-11T10:46:41.479Z,2.28
2022-09-11T10:49:47.403Z,2.80
2022-09-11T10:53:02.685Z,2.78
2022-09-11T10:56:08.922Z,2.40
2022-09-11T10:59:20.383Z,2.45
2022-09-11T11:02:32.091Z,2.63
2022-09-11T11:05:43.808Z,2.60
2022-09-11T11:09:06.656Z,2.70
2022-09-11T11:12:21.354Z,2.67
2022-09-11T11:15:32.772Z,2.67
2022-09-11T11:18:47.938Z,2.58
2022-09-11T11:21:57.391Z,2.45
2022-09-11T11:25:08.225Z,2.58
2022-09-11T11:28:25.104Z,2.58
2022-09-11T11:31:42.501Z,3.17
2022-09-11T11:35:02.082Z,2.47
2022-09-11T11:38:14.195Z,2.38
2022-09-11T11:41:23.485Z,2.80
2022-09-11T11:44:33.385Z,2.42
2022-09-11T11:47:42.874Z,2.83
2022-09-11T11:50:48.958Z,2.88
2022-09-11T11:53:59.995Z,2.80
2022-09-11T11:57:08.696Z,3.03
2022-09-11T12:00:16.328Z,2.83
2022-09-11T12:03:26.339Z,2.47
2022-09-11T12:06:31.782Z,2.95
2022-09-11T12:09:36.840Z,2.67
2022-09-11T12:12:47.921Z,3.13
2022-09-11T12:16:03.932Z,3.50
2022-09-11T12:19:17.367Z,3.30
2022-09-11T12:22:37.344Z,3.30
2022-09-11T12:26:09.199Z,3.47
2022-09-11T12:29:29.118Z,3.28
2022-09-11T12:32:47.396Z,3.22
2022-09-11T12:35:57.189Z,3.40
2022-09-11T12:39:03.501Z,3.47
2022-09-11T12:42:23.452Z,3.10
2022-09-11T12:45:38.709Z,3.63
2022-09-11T12:48:56.176Z,3.13
2022-09-11T12:52:21.673Z,3.08
2022-09-11T12:55:39.875Z,2.22
2022-09-11T12:58:47.974Z,2.17
2022-09-11T13:01:53.533Z,1.92
2022-09-11T13:04:59.133Z,1.77
2022-09-11T13:08:08.296Z,1.90
2022-09-11T13:11:28.498Z,1.83
2022-09-11T13:14:53.088Z,2.30
2022-09-11T13:17:58.060Z,2.28
2022-09-11T13:21:05.096Z,1.85
2022-09-11T13:24:26.920Z,3.17
2022-09-11T13:27:36.432Z,2.42
2022-09-11T13:30:51.600Z,2.03
2022-09-11T13:33:56.650Z,2.85
2022-09-11T13:37:02.035Z,2.35
2022-09-11T13:40:08.749Z,2.42
2022-09-11T13:43:18.306Z,2.10
2022-09-11T13:46:25.125Z,2.88
2022-09-11T13:49:35.483Z,2.38
2022-09-11T13:52:40.600Z,2.33
2022-09-11T13:55:48.942Z,2.80
2022-09-11T13:59:00.031Z,2.13
2022-09-11T14:02:09.979Z,2.63
2022-09-11T14:05:19.388Z,2.47
2022-09-11T14:08:26.221Z,3.00
2022-09-11T14:11:32.545Z,2.50
2022-09-11T14:14:41.662Z,2.00
2022-09-11T14:17:46.946Z,2.53
2022-09-11T14:20:51.985Z,2.97
2022-09-11T14:23:57.959Z,2.03
2022-09-11T14:27:04.504Z,2.00
2022-09-11T14:30:24.404Z,2.10
2022-09-11T14:33:32.319Z,2.15
2022-09-11T14:36:40.271Z,2.00
2022-09-11T14:39:46.636Z,2.28
2022-09-11T14:42:51.993Z,2.72
2022-09-11T14:45:58.034Z,1.90
2022-09-11T14:49:05.913Z,2.83
2022-09-11T14:52:15.772Z,3.22
2022-09-11T14:55:22.067Z,2.80
2022-09-11T14:58:27.263Z,3.00
2022-09-11T15:01:33.538Z,2.75
2022-09-11T15:04:41.405Z,3.20
2022-09-11T15:07:47.287Z,2.28
2022-09-11T15:10:53.701Z,3.30
2022-09-11T15:14:14.791Z,2.63
2022-09-11T15:17:25.244Z,2.70
2022-09-11T15:20:33.055Z,2.92
2022-09-11T15:23:38.504Z,3.15
2022-09-11T15:26:43.786Z,5.85
2022-09-11T15:29:48.791Z,2.58
2022-09-11T15:32:54.063Z,3.80
2022-09-11T15:36:03.789Z,2.60
2022-09-11T15:39:08.955Z,2.42
2022-09-11T15:42:14.315Z,2.45
2022-09-11T15:45:19.734Z,3.03
2022-09-11T15:48:25.154Z,2.60
2022-09-11T15:51:33.012Z,2.60
2022-09-11T15:54:38.105Z,4.53
2022-09-11T15:57:43.242Z,5.13
2022-09-11T16:00:49.001Z,2.97
2022-09-11T16:03:54.370Z,3.20
2022-09-11T16:07:02.534Z,2.22
2022-09-11T16:10:08.217Z,3.10
2022-09-11T16:13:13.575Z,3.13
2022-09-11T16:16:18.925Z,3.40
2022-09-11T16:19:28.241Z,3.20
2022-09-11T16:22:36.095Z,2.85
2022-09-11T16:25:41.669Z,3.10
2022-09-11T16:28:47.501Z,3.80
2022-09-11T16:31:52.886Z,3.83
2022-09-11T16:34:59.624Z,3.33
2022-09-11T16:38:08.008Z,3.20
2022-09-11T16:41:16.321Z,3.17
2022-09-11T16:44:22.902Z,2.97
2022-09-11T16:47:30.595Z,3.25
2022-09-11T16:50:36.097Z,3.63
2022-09-11T16:53:45.382Z,4.65
2022-09-11T16:56:50.506Z,3.05
2022-09-11T16:59:55.782Z,4.38
2022-09-11T17:03:01.107Z,3.35
2022-09-11T17:06:07.256Z,3.60
2022-09-11T17:09:14.967Z,3.05
2022-09-11T17:12:21.595Z,3.42
2022-09-11T17:15:26.903Z,3.60
2022-09-11T17:18:32.020Z,3.72
2022-09-11T17:21:38.102Z,4.05
2022-09-11T17:24:45.882Z,3.00
2022-09-11T17:27:51.177Z,3.63
2022-09-11T17:30:56.150Z,4.90
2022-09-11T17:34:01.249Z,4.47
2022-09-11T17:37:06.678Z,3.95
2022-09-11T17:40:14.707Z,4.75
2022-09-11T17:43:20.022Z,4.07
2022-09-11T17:46:26.463Z,4.35
2022-09-11T17:49:31.750Z,4.47
2022-09-11T17:52:37.174Z,7.35
2022-09-11T17:55:46.670Z,17.88
2022-09-11T17:58:53.098Z,5.65
2022-09-11T18:02:00.023Z,3.60
2022-09-11T18:05:05.397Z,4.10
2022-09-11T18:08:10.719Z,4.13
2022-09-11T18:11:18.621Z,4.25
2022-09-11T18:14:23.792Z,4.07
2022-09-11T18:17:28.938Z,4.50
2022-09-11T18:20:34.564Z,3.85
2022-09-11T18:23:39.923Z,4.43
2022-09-11T18:26:49.743Z,4.60
2022-09-11T18:29:55.203Z,6.60
2022-09-11T18:33:00.330Z,4.68
2022-09-11T18:36:07.831Z,4.60
2022-09-11T18:39:13.980Z,4.15
2022-09-11T18:42:21.866Z,4.22
2022-09-11T18:45:28.698Z,4.18
2022-09-11T18:48:35.499Z,4.32
2022-09-11T18:51:40.768Z,3.08
2022-09-11T18:54:45.837Z,3.33
2022-09-11T18:57:53.866Z,8.60
2022-09-11T19:01:00.642Z,4.38
2022-09-11T19:04:10.359Z,4.20
2022-09-11T19:07:16.130Z,7.28
2022-09-11T19:10:21.843Z,3.80
2022-09-11T19:13:30.390Z,3.70
2022-09-11T19:16:35.692Z,3.25
2022-09-11T19:19:41.061Z,2.92
2022-09-11T19:22:46.019Z,9.30
2022-09-11T19:25:51.677Z,4.05
2022-09-11T19:29:00.510Z,3.72
2022-09-11T19:32:05.691Z,3.92
2022-09-11T19:35:10.682Z,3.88
2022-09-11T19:38:15.885Z,4.50
2022-09-11T19:41:22.290Z,5.78
2022-09-11T19:44:34.779Z,4.68
2022-09-11T19:47:40.066Z,4.53
2022-09-11T19:50:48.328Z,4.53
2022-09-11T19:57:00.238Z,4.75
2022-09-11T20:00:09.239Z,4.03
2022-09-11T20:03:14.416Z,4.63
2022-09-11T20:06:21.241Z,4.32
2022-09-11T20:09:33.398Z,4.13
2022-09-11T20:12:39.141Z,4.78
2022-09-11T20:15:46.914Z,4.15
2022-09-11T20:18:52.165Z,5.23
2022-09-11T20:21:57.356Z,8.07
2022-09-11T20:25:02.431Z,6.47
2022-09-11T20:28:10.812Z,4.75
2022-09-11T20:31:20.061Z,5.13
2022-09-11T20:34:28.168Z,4.90
2022-09-11T20:37:34.257Z,4.85
2022-09-11T20:40:39.972Z,5.43
2022-09-11T20:43:45.532Z,5.22
2022-09-11T20:46:53.752Z,5.88
2022-09-11T20:50:00.527Z,5.22
2022-09-11T20:53:06.059Z,6.38
2022-09-11T20:56:12.139Z,6.00
2022-09-11T20:59:17.850Z,5.90
2022-09-11T21:02:26.093Z,6.32
2022-09-11T21:05:31.454Z,7.20
2022-09-11T21:08:37.012Z,7.13
2022-09-11T21:11:43.637Z,6.90
2022-09-11T21:14:48.888Z,6.80
2022-09-11T21:17:56.982Z,6.78
2022-09-11T21:21:02.144Z,6.47
2022-09-11T21:24:08.567Z,7.57
2022-09-11T21:27:13.549Z,7.03
2022-09-11T21:30:18.797Z,7.05
2022-09-11T21:33:26.408Z,6.95
2022-09-11T21:36:32.529Z,6.30
2022-09-11T21:39:38.365Z,6.85
2022-09-11T21:42:43.753Z,6.57
2022-09-11T21:45:48.961Z,7.53
2022-09-11T21:48:56.710Z,7.22
2022-09-11T21:52:02.977Z,7.35
2022-09-11T21:55:08.846Z,6.63
2022-09-11T21:58:17.440Z,6.65
2022-09-11T22:01:23.279Z,8.45
2022-09-11T22:04:31.068Z,6.78
2022-09-11T22:07:36.579Z,6.28
2022-09-11T22:10:44.288Z,6.32
2022-09-11T22:13:49.588Z,6.85
2022-09-11T22:16:54.766Z,8.88
2022-09-11T22:20:02.602Z,6.25
2022-09-11T22:23:08.840Z,7.95
2022-09-11T22:26:15.239Z,7.05
2022-09-11T22:29:20.449Z,7.20
2022-09-11T22:32:25.748Z,6.50
2022-09-11T22:35:37.051Z,6.97
2022-09-11T22:38:42.243Z,7.85
2022-09-11T22:41:47.376Z,7.22
2022-09-11T22:44:52.494Z,6.82
2022-09-11T22:47:57.805Z,8.38
2022-09-11T22:51:05.777Z,6.88
2022-09-11T22:54:10.994Z,6.70
2022-09-11T22:57:16.121Z,6.68
2022-09-11T23:00:21.242Z,6.80
2022-09-11T23:03:26.482Z,6.78
2022-09-11T23:06:46.741Z,6.57
2022-09-11T23:09:51.903Z,5.85
2022-09-11T23:12:57.358Z,6.25
2022-09-11T23:16:02.504Z,6.82
2022-09-11T23:19:08.355Z,6.38
2022-09-11T23:22:15.916Z,5.90
2022-09-11T23:25:21.309Z,5.95
2022-09-11T23:28:26.416Z,5.93
2022-09-11T23:31:32.667Z,6.38
2022-09-11T23:34:37.895Z,5.45
2022-09-11T23:37:46.079Z,5.47
2022-09-11T23:40:51.165Z,6.03
2022-09-11T23:43:56.394Z,5.70
2022-09-11T23:47:02.456Z,6.20
2022-09-11T23:50:07.743Z,6.00
2022-09-11T23:53:15.540Z,5.97
2022-09-11T23:56:21.154Z,6.43
2022-09-11T23:59:26.673Z,6.13
